sensor_id;sensor_type;location;lat;lon;timestamp;P1;durP1;ratioP1;P2;durP2;ratioP2
15126;SDS011;7664;52.008;4.748;2024-03-17T00:00:48;9.93;;;3.97;;
15126;SDS011;7664;52.008;4.748;2024-03-17T00:03:15;9.57;;;3.83;;
15126;SDS011;7664;52.008;4.748;2024-03-17T00:05:57;9.73;;;3.22;;
15126;SDS011;7664;52.008;4.748;2024-03-17T00:08:32;7.28;;;4.43;;
15126;SDS011;7664;52.008;4.748;2024-03-17T00:11:08;5.53;;;3.50;;
15126;SDS011;7664;52.008;4.748;2024-03-17T00:13:39;9.68;;;3.97;;
15126;SDS011;7664;52.008;4.748;2024-03-17T00:16:11;4.05;;;3.30;;
15126;SDS011;7664;52.008;4.748;2024-03-17T00:18:45;7.85;;;3.80;;
15126;SDS011;7664;52.008;4.748;2024-03-17T00:21:16;11.20;;;4.05;;
15126;SDS011;7664;52.008;4.748;2024-03-17T00:23:49;10.55;;;4.00;;
15126;SDS011;7664;52.008;4.748;2024-03-17T00:26:19;7.70;;;3.80;;
15126;SDS011;7664;52.008;4.748;2024-03-17T00:28:50;10.52;;;3.30;;
15126;SDS011;7664;52.008;4.748;2024-03-17T00:31:18;7.53;;;3.75;;
15126;SDS011;7664;52.008;4.748;2024-03-17T00:33:49;9.80;;;4.57;;
15126;SDS011;7664;52.008;4.748;2024-03-17T00:36:19;8.38;;;4.45;;
15126;SDS011;7664;52.008;4.748;2024-03-17T00:38:51;9.90;;;3.55;;
15126;SDS011;7664;52.008;4.748;2024-03-17T00:41:22;8.15;;;3.92;;
15126;SDS011;7664;52.008;4.748;2024-03-17T00:43:55;8.27;;;3.72;;
15126;SDS011;7664;52.008;4.748;2024-03-17T00:46:24;10.43;;;3.65;;
15126;SDS011;7664;52.008;4.748;2024-03-17T00:48:51;7.50;;;3.50;;
15126;SDS011;7664;52.008;4.748;2024-03-17T00:51:20;5.90;;;3.72;;
15126;SDS011;7664;52.008;4.748;2024-03-17T00:53:52;7.90;;;3.42;;
15126;SDS011;7664;52.008;4.748;2024-03-17T00:56:24;8.35;;;3.75;;
15126;SDS011;7664;52.008;4.748;2024-03-17T00:59:02;8.85;;;3.65;;
15126;SDS011;7664;52.008;4.748;2024-03-17T01:01:36;7.88;;;3.25;;
15126;SDS011;7664;52.008;4.748;2024-03-17T01:04:06;8.50;;;3.83;;
15126;SDS011;7664;52.008;4.748;2024-03-17T01:06:38;7.72;;;3.60;;
15126;SDS011;7664;52.008;4.748;2024-03-17T01:09:09;7.18;;;3.67;;
15126;SDS011;7664;52.008;4.748;2024-03-17T01:11:40;7.35;;;3.60;;
15126;SDS011;7664;52.008;4.748;2024-03-17T01:14:09;12.20;;;4.63;;
15126;SDS011;7664;52.008;4.748;2024-03-17T01:16:44;6.13;;;3.58;;
15126;SDS011;7664;52.008;4.748;2024-03-17T01:19:21;7.07;;;3.40;;
15126;SDS011;7664;52.008;4.748;2024-03-17T01:21:49;7.07;;;3.30;;
15126;SDS011;7664;52.008;4.748;2024-03-17T01:24:18;10.38;;;3.60;;
15126;SDS011;7664;52.008;4.748;2024-03-17T01:26:48;7.07;;;3.13;;
15126;SDS011;7664;52.008;4.748;2024-03-17T01:29:21;8.20;;;4.07;;
15126;SDS011;7664;52.008;4.748;2024-03-17T01:31:49;6.75;;;3.53;;
15126;SDS011;7664;52.008;4.748;2024-03-17T01:34:16;7.88;;;3.90;;
15126;SDS011;7664;52.008;4.748;2024-03-17T01:36:50;8.50;;;3.55;;
15126;SDS011;7664;52.008;4.748;2024-03-17T01:39:19;5.35;;;3.33;;
15126;SDS011;7664;52.008;4.748;2024-03-17T01:41:47;7.68;;;3.65;;
15126;SDS011;7664;52.008;4.748;2024-03-17T01:44:23;6.22;;;3.50;;
15126;SDS011;7664;52.008;4.748;2024-03-17T01:46:52;14.57;;;4.30;;
15126;SDS011;7664;52.008;4.748;2024-03-17T01:49:22;6.53;;;3.63;;
15126;SDS011;7664;52.008;4.748;2024-03-17T01:51:49;5.75;;;3.75;;
15126;SDS011;7664;52.008;4.748;2024-03-17T01:54:18;7.05;;;3.38;;
15126;SDS011;7664;52.008;4.748;2024-03-17T01:56:44;6.15;;;3.72;;
15126;SDS011;7664;52.008;4.748;2024-03-17T01:59:12;6.63;;;3.83;;
15126;SDS011;7664;52.008;4.748;2024-03-17T02:01:41;4.75;;;3.33;;
15126;SDS011;7664;52.008;4.748;2024-03-17T02:04:09;6.03;;;3.35;;
15126;SDS011;7664;52.008;4.748;2024-03-17T02:06:37;7.25;;;3.90;;
15126;SDS011;7664;52.008;4.748;2024-03-17T02:09:07;4.93;;;3.70;;
15126;SDS011;7664;52.008;4.748;2024-03-17T02:11:37;6.07;;;4.00;;
15126;SDS011;7664;52.008;4.748;2024-03-17T02:14:05;5.85;;;4.10;;
15126;SDS011;7664;52.008;4.748;2024-03-17T02:16:33;6.60;;;4.07;;
15126;SDS011;7664;52.008;4.748;2024-03-17T02:19:03;7.40;;;4.65;;
15126;SDS011;7664;52.008;4.748;2024-03-17T02:21:31;5.78;;;3.95;;
15126;SDS011;7664;52.008;4.748;2024-03-17T02:24:00;7.50;;;4.00;;
15126;SDS011;7664;52.008;4.748;2024-03-17T02:26:28;7.65;;;4.15;;
15126;SDS011;7664;52.008;4.748;2024-03-17T02:29:04;5.88;;;3.42;;
15126;SDS011;7664;52.008;4.748;2024-03-17T02:31:32;6.82;;;3.75;;
15126;SDS011;7664;52.008;4.748;2024-03-17T02:33:59;6.15;;;4.43;;
15126;SDS011;7664;52.008;4.748;2024-03-17T02:36:27;3.70;;;3.30;;
15126;SDS011;7664;52.008;4.748;2024-03-17T02:38:54;7.30;;;3.80;;
15126;SDS011;7664;52.008;4.748;2024-03-17T02:41:43;7.28;;;4.20;;
15126;SDS011;7664;52.008;4.748;2024-03-17T02:44:12;6.85;;;3.97;;
15126;SDS011;7664;52.008;4.748;2024-03-17T02:46:40;8.38;;;4.57;;
15126;SDS011;7664;52.008;4.748;2024-03-17T02:49:08;6.30;;;3.67;;
15126;SDS011;7664;52.008;4.748;2024-03-17T02:51:39;6.82;;;4.07;;
15126;SDS011;7664;52.008;4.748;2024-03-17T02:54:13;6.57;;;4.10;;
15126;SDS011;7664;52.008;4.748;2024-03-17T02:56:43;6.25;;;4.00;;
15126;SDS011;7664;52.008;4.748;2024-03-17T02:59:13;7.65;;;4.55;;
15126;SDS011;7664;52.008;4.748;2024-03-17T03:01:41;9.18;;;4.50;;
15126;SDS011;7664;52.008;4.748;2024-03-17T03:04:11;5.95;;;4.28;;
15126;SDS011;7664;52.008;4.748;2024-03-17T03:06:41;9.48;;;5.97;;
15126;SDS011;7664;52.008;4.748;2024-03-17T03:09:20;5.93;;;4.88;;
15126;SDS011;7664;52.008;4.748;2024-03-17T03:11:53;8.45;;;5.00;;
15126;SDS011;7664;52.008;4.748;2024-03-17T03:14:24;7.60;;;4.78;;
15126;SDS011;7664;52.008;4.748;2024-03-17T03:16:52;7.57;;;5.10;;
15126;SDS011;7664;52.008;4.748;2024-03-17T03:19:22;8.98;;;5.43;;
15126;SDS011;7664;52.008;4.748;2024-03-17T03:21:50;6.03;;;4.45;;
15126;SDS011;7664;52.008;4.748;2024-03-17T03:24:18;7.95;;;5.00;;
15126;SDS011;7664;52.008;4.748;2024-03-17T03:26:46;7.47;;;4.72;;
15126;SDS011;7664;52.008;4.748;2024-03-17T03:29:15;8.95;;;4.90;;
15126;SDS011;7664;52.008;4.748;2024-03-17T03:31:43;6.28;;;4.90;;
15126;SDS011;7664;52.008;4.748;2024-03-17T03:34:17;9.43;;;4.78;;
15126;SDS011;7664;52.008;4.748;2024-03-17T03:36:44;9.73;;;4.82;;
15126;SDS011;7664;52.008;4.748;2024-03-17T03:39:12;6.63;;;4.68;;
15126;SDS011;7664;52.008;4.748;2024-03-17T03:41:40;7.72;;;5.55;;
15126;SDS011;7664;52.008;4.748;2024-03-17T03:44:11;7.07;;;4.28;;
15126;SDS011;7664;52.008;4.748;2024-03-17T03:46:41;8.90;;;4.18;;
15126;SDS011;7664;52.008;4.748;2024-03-17T03:49:13;9.65;;;5.78;;
15126;SDS011;7664;52.008;4.748;2024-03-17T03:51:41;7.13;;;4.53;;
15126;SDS011;7664;52.008;4.748;2024-03-17T03:54:09;7.63;;;4.72;;
15126;SDS011;7664;52.008;4.748;2024-03-17T03:56:42;7.85;;;4.32;;
15126;SDS011;7664;52.008;4.748;2024-03-17T03:59:10;8.50;;;4.80;;
15126;SDS011;7664;52.008;4.748;2024-03-17T04:01:38;7.60;;;5.10;;
15126;SDS011;7664;52.008;4.748;2024-03-17T04:04:10;8.10;;;5.13;;
15126;SDS011;7664;52.008;4.748;2024-03-17T04:06:38;8.65;;;5.10;;
15126;SDS011;7664;52.008;4.748;2024-03-17T04:09:06;9.45;;;5.38;;
15126;SDS011;7664;52.008;4.748;2024-03-17T04:11:36;5.85;;;4.25;;
15126;SDS011;7664;52.008;4.748;2024-03-17T04:14:07;6.25;;;4.38;;
15126;SDS011;7664;52.008;4.748;2024-03-17T04:16:38;9.15;;;5.50;;
15126;SDS011;7664;52.008;4.748;2024-03-17T04:19:16;7.30;;;5.20;;
15126;SDS011;7664;52.008;4.748;2024-03-17T04:21:45;7.47;;;5.10;;
15126;SDS011;7664;52.008;4.748;2024-03-17T04:24:14;8.75;;;4.90;;
15126;SDS011;7664;52.008;4.748;2024-03-17T04:26:46;9.00;;;5.05;;
15126;SDS011;7664;52.008;4.748;2024-03-17T04:29:15;7.10;;;4.85;;
15126;SDS011;7664;52.008;4.748;2024-03-17T04:31:44;6.90;;;4.70;;
15126;SDS011;7664;52.008;4.748;2024-03-17T04:34:18;7.15;;;4.70;;
15126;SDS011;7664;52.008;4.748;2024-03-17T04:36:54;7.00;;;4.72;;
15126;SDS011;7664;52.008;4.748;2024-03-17T04:39:28;5.95;;;4.93;;
15126;SDS011;7664;52.008;4.748;2024-03-17T04:42:02;6.45;;;4.70;;
15126;SDS011;7664;52.008;4.748;2024-03-17T04:44:34;9.35;;;5.07;;
15126;SDS011;7664;52.008;4.748;2024-03-17T04:47:05;6.97;;;4.95;;
15126;SDS011;7664;52.008;4.748;2024-03-17T04:49:37;9.60;;;4.90;;
15126;SDS011;7664;52.008;4.748;2024-03-17T04:52:06;8.32;;;4.50;;
15126;SDS011;7664;52.008;4.748;2024-03-17T04:54:35;12.98;;;5.35;;
15126;SDS011;7664;52.008;4.748;2024-03-17T04:57:04;7.07;;;4.88;;
15126;SDS011;7664;52.008;4.748;2024-03-17T04:59:35;7.40;;;4.97;;
15126;SDS011;7664;52.008;4.748;2024-03-17T05:02:04;11.43;;;5.28;;
15126;SDS011;7664;52.008;4.748;2024-03-17T05:04:32;8.10;;;4.53;;
15126;SDS011;7664;52.008;4.748;2024-03-17T05:07:01;7.32;;;4.65;;
15126;SDS011;7664;52.008;4.748;2024-03-17T05:09:29;8.65;;;4.00;;
15126;SDS011;7664;52.008;4.748;2024-03-17T05:11:57;9.25;;;4.75;;
15126;SDS011;7664;52.008;4.748;2024-03-17T05:14:27;7.55;;;4.80;;
15126;SDS011;7664;52.008;4.748;2024-03-17T05:16:55;7.47;;;4.93;;
15126;SDS011;7664;52.008;4.748;2024-03-17T05:19:23;8.63;;;4.28;;
15126;SDS011;7664;52.008;4.748;2024-03-17T05:22:05;8.70;;;4.57;;
15126;SDS011;7664;52.008;4.748;2024-03-17T05:24:40;6.72;;;4.25;;
15126;SDS011;7664;52.008;4.748;2024-03-17T05:27:19;8.15;;;4.57;;
15126;SDS011;7664;52.008;4.748;2024-03-17T05:29:53;7.28;;;4.72;;
15126;SDS011;7664;52.008;4.748;2024-03-17T05:32:24;7.68;;;5.43;;
15126;SDS011;7664;52.008;4.748;2024-03-17T05:34:53;7.65;;;4.97;;
15126;SDS011;7664;52.008;4.748;2024-03-17T05:37:32;8.70;;;5.25;;
15126;SDS011;7664;52.008;4.748;2024-03-17T05:40:02;7.38;;;5.22;;
15126;SDS011;7664;52.008;4.748;2024-03-17T05:42:32;8.95;;;4.60;;
15126;SDS011;7664;52.008;4.748;2024-03-17T05:45:02;9.10;;;5.43;;
15126;SDS011;7664;52.008;4.748;2024-03-17T05:47:37;7.05;;;4.72;;
15126;SDS011;7664;52.008;4.748;2024-03-17T05:50:07;8.32;;;5.15;;
15126;SDS011;7664;52.008;4.748;2024-03-17T05:52:37;7.63;;;4.88;;
15126;SDS011;7664;52.008;4.748;2024-03-17T05:55:05;9.90;;;5.13;;
15126;SDS011;7664;52.008;4.748;2024-03-17T05:57:33;11.07;;;5.60;;
15126;SDS011;7664;52.008;4.748;2024-03-17T06:00:01;7.82;;;4.95;;
15126;SDS011;7664;52.008;4.748;2024-03-17T06:02:37;6.72;;;4.68;;
15126;SDS011;7664;52.008;4.748;2024-03-17T06:05:07;7.75;;;5.30;;
15126;SDS011;7664;52.008;4.748;2024-03-17T06:07:39;7.55;;;5.03;;
15126;SDS011;7664;52.008;4.748;2024-03-17T06:10:07;8.63;;;5.30;;
15126;SDS011;7664;52.008;4.748;2024-03-17T06:12:37;9.38;;;5.32;;
15126;SDS011;7664;52.008;4.748;2024-03-17T06:15:05;9.88;;;5.25;;
15126;SDS011;7664;52.008;4.748;2024-03-17T06:17:36;10.50;;;5.80;;
15126;SDS011;7664;52.008;4.748;2024-03-17T06:20:04;9.45;;;5.70;;
15126;SDS011;7664;52.008;4.748;2024-03-17T06:22:38;9.68;;;6.05;;
15126;SDS011;7664;52.008;4.748;2024-03-17T06:25:06;9.25;;;6.00;;
15126;SDS011;7664;52.008;4.748;2024-03-17T06:27:35;9.18;;;6.25;;
15126;SDS011;7664;52.008;4.748;2024-03-17T06:30:03;6.85;;;5.00;;
15126;SDS011;7664;52.008;4.748;2024-03-17T06:32:32;11.13;;;5.60;;
15126;SDS011;7664;52.008;4.748;2024-03-17T06:35:02;9.45;;;5.63;;
15126;SDS011;7664;52.008;4.748;2024-03-17T06:37:32;9.65;;;5.45;;
15126;SDS011;7664;52.008;4.748;2024-03-17T06:40:01;10.68;;;6.30;;
15126;SDS011;7664;52.008;4.748;2024-03-17T06:42:29;8.73;;;5.65;;
15126;SDS011;7664;52.008;4.748;2024-03-17T06:44:57;7.97;;;5.50;;
15126;SDS011;7664;52.008;4.748;2024-03-17T06:47:31;6.93;;;5.00;;
15126;SDS011;7664;52.008;4.748;2024-03-17T06:50:01;10.80;;;6.35;;
15126;SDS011;7664;52.008;4.748;2024-03-17T06:52:30;10.98;;;5.95;;
15126;SDS011;7664;52.008;4.748;2024-03-17T06:55:03;8.65;;;5.57;;
15126;SDS011;7664;52.008;4.748;2024-03-17T06:57:43;12.35;;;5.93;;
15126;SDS011;7664;52.008;4.748;2024-03-17T07:00:12;11.98;;;6.93;;
15126;SDS011;7664;52.008;4.748;2024-03-17T07:02:42;10.63;;;6.40;;
15126;SDS011;7664;52.008;4.748;2024-03-17T07:05:15;9.05;;;6.25;;
15126;SDS011;7664;52.008;4.748;2024-03-17T07:07:49;9.93;;;6.32;;
15126;SDS011;7664;52.008;4.748;2024-03-17T07:10:21;9.90;;;6.05;;
15126;SDS011;7664;52.008;4.748;2024-03-17T07:12:59;7.93;;;5.97;;
15126;SDS011;7664;52.008;4.748;2024-03-17T07:16:04;9.50;;;5.85;;
15126;SDS011;7664;52.008;4.748;2024-03-17T07:18:50;10.00;;;6.05;;
15126;SDS011;7664;52.008;4.748;2024-03-17T07:21:23;10.13;;;6.40;;
15126;SDS011;7664;52.008;4.748;2024-03-17T07:24:05;8.73;;;5.85;;
15126;SDS011;7664;52.008;4.748;2024-03-17T07:26:47;8.30;;;6.10;;
15126;SDS011;7664;52.008;4.748;2024-03-17T07:29:55;9.38;;;6.32;;
15126;SDS011;7664;52.008;4.748;2024-03-17T07:32:53;8.60;;;6.40;;
15126;SDS011;7664;52.008;4.748;2024-03-17T07:40:18;8.93;;;6.60;;
15126;SDS011;7664;52.008;4.748;2024-03-17T07:42:50;9.30;;;5.82;;
15126;SDS011;7664;52.008;4.748;2024-03-17T07:45:32;7.88;;;5.93;;
15126;SDS011;7664;52.008;4.748;2024-03-17T07:48:50;8.38;;;6.55;;
15126;SDS011;7664;52.008;4.748;2024-03-17T07:51:18;7.22;;;5.97;;
15126;SDS011;7664;52.008;4.748;2024-03-17T07:57:34;8.52;;;6.07;;
15126;SDS011;7664;52.008;4.748;2024-03-17T08:01:07;10.00;;;6.55;;
15126;SDS011;7664;52.008;4.748;2024-03-17T08:03:41;6.93;;;5.93;;
15126;SDS011;7664;52.008;4.748;2024-03-17T08:06:16;6.88;;;5.25;;
15126;SDS011;7664;52.008;4.748;2024-03-17T08:08:44;9.02;;;6.07;;
15126;SDS011;7664;52.008;4.748;2024-03-17T08:11:48;8.77;;;6.13;;
15126;SDS011;7664;52.008;4.748;2024-03-17T08:14:17;10.05;;;6.88;;
15126;SDS011;7664;52.008;4.748;2024-03-17T08:16:46;6.03;;;5.30;;
15126;SDS011;7664;52.008;4.748;2024-03-17T08:19:15;8.25;;;6.30;;
15126;SDS011;7664;52.008;4.748;2024-03-17T08:21:49;9.60;;;6.43;;
15126;SDS011;7664;52.008;4.748;2024-03-17T08:24:26;11.02;;;6.93;;
15126;SDS011;7664;52.008;4.748;2024-03-17T08:27:00;10.23;;;6.10;;
15126;SDS011;7664;52.008;4.748;2024-03-17T08:29:32;9.88;;;6.35;;
15126;SDS011;7664;52.008;4.748;2024-03-17T08:32:13;10.05;;;6.43;;
15126;SDS011;7664;52.008;4.748;2024-03-17T08:35:03;9.88;;;6.97;;
15126;SDS011;7664;52.008;4.748;2024-03-17T08:38:22;7.40;;;5.80;;
15126;SDS011;7664;52.008;4.748;2024-03-17T08:40:54;9.45;;;7.03;;
15126;SDS011;7664;52.008;4.748;2024-03-17T08:43:47;8.13;;;6.05;;
15126;SDS011;7664;52.008;4.748;2024-03-17T08:46:29;9.80;;;7.07;;
15126;SDS011;7664;52.008;4.748;2024-03-17T08:49:12;9.68;;;6.28;;
15126;SDS011;7664;52.008;4.748;2024-03-17T08:51:48;7.47;;;5.68;;
15126;SDS011;7664;52.008;4.748;2024-03-17T08:54:29;10.05;;;6.85;;
15126;SDS011;7664;52.008;4.748;2024-03-17T08:57:49;11.13;;;6.50;;
15126;SDS011;7664;52.008;4.748;2024-03-17T09:00:17;9.15;;;5.85;;
15126;SDS011;7664;52.008;4.748;2024-03-17T09:02:48;9.15;;;6.32;;
15126;SDS011;7664;52.008;4.748;2024-03-17T09:05:22;10.98;;;6.55;;
15126;SDS011;7664;52.008;4.748;2024-03-17T09:08:21;10.82;;;6.88;;
15126;SDS011;7664;52.008;4.748;2024-03-17T09:11:25;9.85;;;6.35;;
15126;SDS011;7664;52.008;4.748;2024-03-17T09:14:12;10.88;;;6.90;;
15126;SDS011;7664;52.008;4.748;2024-03-17T09:17:40;9.38;;;5.85;;
15126;SDS011;7664;52.008;4.748;2024-03-17T09:20:49;8.02;;;6.35;;
15126;SDS011;7664;52.008;4.748;2024-03-17T09:23:34;9.85;;;5.97;;
15126;SDS011;7664;52.008;4.748;2024-03-17T09:26:04;9.05;;;6.07;;
15126;SDS011;7664;52.008;4.748;2024-03-17T09:28:36;8.50;;;6.15;;
15126;SDS011;7664;52.008;4.748;2024-03-17T09:31:14;12.50;;;6.70;;
15126;SDS011;7664;52.008;4.748;2024-03-17T09:33:48;10.82;;;6.93;;
15126;SDS011;7664;52.008;4.748;2024-03-17T09:36:47;8.38;;;6.22;;
15126;SDS011;7664;52.008;4.748;2024-03-17T09:39:47;8.95;;;6.57;;
15126;SDS011;7664;52.008;4.748;2024-03-17T09:45:20;7.38;;;5.65;;
15126;SDS011;7664;52.008;4.748;2024-03-17T09:48:01;7.93;;;6.03;;
15126;SDS011;7664;52.008;4.748;2024-03-17T09:50:38;6.25;;;5.20;;
15126;SDS011;7664;52.008;4.748;2024-03-17T09:53:23;7.38;;;5.88;;
15126;SDS011;7664;52.008;4.748;2024-03-17T09:56:17;8.00;;;5.97;;
15126;SDS011;7664;52.008;4.748;2024-03-17T09:58:51;6.82;;;5.20;;
15126;SDS011;7664;52.008;4.748;2024-03-17T10:01:27;9.10;;;6.28;;
15126;SDS011;7664;52.008;4.748;2024-03-17T10:04:31;8.05;;;5.97;;
15126;SDS011;7664;52.008;4.748;2024-03-17T10:07:05;8.45;;;6.22;;
15126;SDS011;7664;52.008;4.748;2024-03-17T10:09:43;9.23;;;6.55;;
15126;SDS011;7664;52.008;4.748;2024-03-17T10:12:25;10.38;;;6.32;;
15126;SDS011;7664;52.008;4.748;2024-03-17T10:15:10;7.40;;;5.25;;
15126;SDS011;7664;52.008;4.748;2024-03-17T10:17:43;6.80;;;5.03;;
15126;SDS011;7664;52.008;4.748;2024-03-17T10:23:17;10.95;;;6.03;;
15126;SDS011;7664;52.008;4.748;2024-03-17T10:26:11;15.55;;;6.32;;
15126;SDS011;7664;52.008;4.748;2024-03-17T10:28:55;8.32;;;5.45;;
15126;SDS011;7664;52.008;4.748;2024-03-17T10:31:31;8.85;;;6.07;;
15126;SDS011;7664;52.008;4.748;2024-03-17T10:34:03;9.68;;;6.00;;
15126;SDS011;7664;52.008;4.748;2024-03-17T10:36:37;8.65;;;5.60;;
15126;SDS011;7664;52.008;4.748;2024-03-17T10:39:22;6.22;;;5.05;;
15126;SDS011;7664;52.008;4.748;2024-03-17T10:42:10;7.80;;;5.53;;
15126;SDS011;7664;52.008;4.748;2024-03-17T10:44:49;7.22;;;5.75;;
15126;SDS011;7664;52.008;4.748;2024-03-17T10:47:32;10.77;;;6.25;;
15126;SDS011;7664;52.008;4.748;2024-03-17T10:50:16;7.88;;;5.35;;
15126;SDS011;7664;52.008;4.748;2024-03-17T10:52:58;8.45;;;5.50;;
15126;SDS011;7664;52.008;4.748;2024-03-17T10:55:54;6.75;;;5.05;;
15126;SDS011;7664;52.008;4.748;2024-03-17T10:58:38;7.13;;;5.00;;
15126;SDS011;7664;52.008;4.748;2024-03-17T11:01:22;9.20;;;6.00;;
15126;SDS011;7664;52.008;4.748;2024-03-17T11:03:52;6.20;;;5.05;;
15126;SDS011;7664;52.008;4.748;2024-03-17T11:06:20;7.30;;;5.28;;
15126;SDS011;7664;52.008;4.748;2024-03-17T11:08:57;9.15;;;5.85;;
15126;SDS011;7664;52.008;4.748;2024-03-17T11:11:40;7.07;;;5.47;;
15126;SDS011;7664;52.008;4.748;2024-03-17T11:14:36;8.05;;;6.18;;
15126;SDS011;7664;52.008;4.748;2024-03-17T11:23:25;7.10;;;5.00;;
15126;SDS011;7664;52.008;4.748;2024-03-17T11:26:03;7.53;;;5.50;;
15126;SDS011;7664;52.008;4.748;2024-03-17T11:29:23;7.72;;;5.00;;
15126;SDS011;7664;52.008;4.748;2024-03-17T11:32:28;8.35;;;5.72;;
15126;SDS011;7664;52.008;4.748;2024-03-17T11:35:12;8.30;;;5.90;;
15126;SDS011;7664;52.008;4.748;2024-03-17T11:37:47;7.82;;;5.72;;
15126;SDS011;7664;52.008;4.748;2024-03-17T11:40:24;7.60;;;5.90;;
15126;SDS011;7664;52.008;4.748;2024-03-17T11:43:06;8.13;;;5.72;;
15126;SDS011;7664;52.008;4.748;2024-03-17T11:45:45;8.43;;;5.18;;
15126;SDS011;7664;52.008;4.748;2024-03-17T11:48:23;7.43;;;5.55;;
15126;SDS011;7664;52.008;4.748;2024-03-17T11:50:50;9.70;;;5.90;;
15126;SDS011;7664;52.008;4.748;2024-03-17T11:53:19;8.20;;;6.07;;
15126;SDS011;7664;52.008;4.748;2024-03-17T11:55:48;11.60;;;6.25;;
15126;SDS011;7664;52.008;4.748;2024-03-17T11:58:17;7.35;;;5.47;;
15126;SDS011;7664;52.008;4.748;2024-03-17T12:00:50;7.40;;;4.18;;
15126;SDS011;7664;52.008;4.748;2024-03-17T12:03:19;6.68;;;4.97;;
15126;SDS011;7664;52.008;4.748;2024-03-17T12:05:49;6.65;;;4.95;;
15126;SDS011;7664;52.008;4.748;2024-03-17T12:08:21;7.82;;;5.15;;
15126;SDS011;7664;52.008;4.748;2024-03-17T12:14:18;5.53;;;4.30;;
15126;SDS011;7664;52.008;4.748;2024-03-17T12:17:32;7.15;;;4.03;;
15126;SDS011;7664;52.008;4.748;2024-03-17T12:20:45;6.75;;;3.50;;
15126;SDS011;7664;52.008;4.748;2024-03-17T12:30:29;6.78;;;4.50;;
15126;SDS011;7664;52.008;4.748;2024-03-17T12:33:30;8.63;;;4.18;;
15126;SDS011;7664;52.008;4.748;2024-03-17T12:40:54;5.65;;;4.10;;
15126;SDS011;7664;52.008;4.748;2024-03-17T12:43:55;6.45;;;4.20;;
15126;SDS011;7664;52.008;4.748;2024-03-17T12:46:39;6.97;;;4.10;;
15126;SDS011;7664;52.008;4.748;2024-03-17T12:49:23;7.80;;;3.63;;
15126;SDS011;7664;52.008;4.748;2024-03-17T12:55:52;8.98;;;4.38;;
15126;SDS011;7664;52.008;4.748;2024-03-17T12:57:16;7.43;;;3.53;;
15126;SDS011;7664;52.008;4.748;2024-03-17T13:00:16;5.45;;;3.05;;
15126;SDS011;7664;52.008;4.748;2024-03-17T13:03:24;6.93;;;3.85;;
15126;SDS011;7664;52.008;4.748;2024-03-17T13:06:06;5.82;;;3.35;;
15126;SDS011;7664;52.008;4.748;2024-03-17T13:08:38;5.20;;;3.40;;
15126;SDS011;7664;52.008;4.748;2024-03-17T13:11:20;7.43;;;3.13;;
15126;SDS011;7664;52.008;4.748;2024-03-17T13:13:56;7.78;;;3.17;;
15126;SDS011;7664;52.008;4.748;2024-03-17T13:16:34;6.38;;;2.67;;
15126;SDS011;7664;52.008;4.748;2024-03-17T13:19:14;5.38;;;2.92;;
15126;SDS011;7664;52.008;4.748;2024-03-17T13:21:49;5.35;;;2.92;;
15126;SDS011;7664;52.008;4.748;2024-03-17T13:24:28;8.43;;;3.47;;
15126;SDS011;7664;52.008;4.748;2024-03-17T13:27:08;5.05;;;3.13;;
15126;SDS011;7664;52.008;4.748;2024-03-17T13:29:52;4.75;;;3.13;;
15126;SDS011;7664;52.008;4.748;2024-03-17T13:33:03;5.40;;;3.25;;
15126;SDS011;7664;52.008;4.748;2024-03-17T13:53:25;5.20;;;3.35;;
15126;SDS011;7664;52.008;4.748;2024-03-17T13:56:06;4.13;;;2.78;;
15126;SDS011;7664;52.008;4.748;2024-03-17T13:58:49;5.25;;;3.05;;
15126;SDS011;7664;52.008;4.748;2024-03-17T14:01:21;4.88;;;2.95;;
15126;SDS011;7664;52.008;4.748;2024-03-17T14:04:03;7.10;;;3.00;;
15126;SDS011;7664;52.008;4.748;2024-03-17T14:09:29;7.53;;;3.58;;
15126;SDS011;7664;52.008;4.748;2024-03-17T14:12:04;4.72;;;2.95;;
15126;SDS011;7664;52.008;4.748;2024-03-17T14:14:32;5.47;;;2.97;;
15126;SDS011;7664;52.008;4.748;2024-03-17T14:17:00;6.13;;;3.60;;
15126;SDS011;7664;52.008;4.748;2024-03-17T14:19:30;5.38;;;3.25;;
15126;SDS011;7664;52.008;4.748;2024-03-17T14:22:10;6.30;;;3.28;;
15126;SDS011;7664;52.008;4.748;2024-03-17T14:31:20;3.60;;;2.88;;
15126;SDS011;7664;52.008;4.748;2024-03-17T14:44:34;4.47;;;3.22;;
15126;SDS011;7664;52.008;4.748;2024-03-17T14:54:55;6.82;;;3.40;;
15126;SDS011;7664;52.008;4.748;2024-03-17T15:04:46;6.05;;;3.17;;
15126;SDS011;7664;52.008;4.748;2024-03-17T15:07:21;5.30;;;2.60;;
15126;SDS011;7664;52.008;4.748;2024-03-17T15:09:59;4.65;;;2.95;;
15126;SDS011;7664;52.008;4.748;2024-03-17T15:12:33;4.93;;;2.83;;
15126;SDS011;7664;52.008;4.748;2024-03-17T15:15:03;4.13;;;2.28;;
15126;SDS011;7664;52.008;4.748;2024-03-17T15:17:36;5.35;;;2.83;;
15126;SDS011;7664;52.008;4.748;2024-03-17T15:20:06;3.83;;;2.50;;
15126;SDS011;7664;52.008;4.748;2024-03-17T15:22:45;5.43;;;2.72;;
15126;SDS011;7664;52.008;4.748;2024-03-17T15:25:16;6.90;;;2.67;;
15126;SDS011;7664;52.008;4.748;2024-03-17T15:27:45;6.00;;;2.90;;
15126;SDS011;7664;52.008;4.748;2024-03-17T15:30:16;4.30;;;2.72;;
15126;SDS011;7664;52.008;4.748;2024-03-17T15:32:51;4.72;;;2.65;;
15126;SDS011;7664;52.008;4.748;2024-03-17T15:35:24;3.67;;;2.65;;
15126;SDS011;7664;52.008;4.748;2024-03-17T15:37:57;4.55;;;2.67;;
15126;SDS011;7664;52.008;4.748;2024-03-17T15:40:30;5.55;;;2.88;;
15126;SDS011;7664;52.008;4.748;2024-03-17T15:42:59;4.07;;;2.55;;
15126;SDS011;7664;52.008;4.748;2024-03-17T15:45:32;3.88;;;2.25;;
15126;SDS011;7664;52.008;4.748;2024-03-17T15:48:03;4.75;;;2.42;;
15126;SDS011;7664;52.008;4.748;2024-03-17T15:50:31;3.92;;;2.58;;
15126;SDS011;7664;52.008;4.748;2024-03-17T15:53:01;4.03;;;2.58;;
15126;SDS011;7664;52.008;4.748;2024-03-17T15:55:35;10.63;;;2.95;;
15126;SDS011;7664;52.008;4.748;2024-03-17T15:58:05;4.85;;;2.72;;
15126;SDS011;7664;52.008;4.748;2024-03-17T16:00:33;7.72;;;3.20;;
15126;SDS011;7664;52.008;4.748;2024-03-17T16:03:04;5.40;;;2.83;;
15126;SDS011;7664;52.008;4.748;2024-03-17T16:05:32;6.35;;;2.70;;
15126;SDS011;7664;52.008;4.748;2024-03-17T16:08:00;4.32;;;3.28;;
15126;SDS011;7664;52.008;4.748;2024-03-17T16:10:30;6.78;;;3.40;;
15126;SDS011;7664;52.008;4.748;2024-03-17T16:13:05;6.53;;;3.65;;
15126;SDS011;7664;52.008;4.748;2024-03-17T16:15:33;4.20;;;2.80;;
15126;SDS011;7664;52.008;4.748;2024-03-17T16:18:01;5.60;;;2.58;;
15126;SDS011;7664;52.008;4.748;2024-03-17T16:20:40;5.43;;;2.80;;
15126;SDS011;7664;52.008;4.748;2024-03-17T16:23:21;6.75;;;2.97;;
15126;SDS011;7664;52.008;4.748;2024-03-17T16:25:49;5.35;;;2.42;;
15126;SDS011;7664;52.008;4.748;2024-03-17T16:28:25;4.40;;;2.88;;
15126;SDS011;7664;52.008;4.748;2024-03-17T16:30:53;3.08;;;2.40;;
15126;SDS011;7664;52.008;4.748;2024-03-17T16:33:34;5.57;;;3.17;;
15126;SDS011;7664;52.008;4.748;2024-03-17T16:36:06;3.58;;;2.50;;
15126;SDS011;7664;52.008;4.748;2024-03-17T16:38:48;5.22;;;2.35;;
15126;SDS011;7664;52.008;4.748;2024-03-17T16:41:21;4.22;;;2.63;;
15126;SDS011;7664;52.008;4.748;2024-03-17T16:44:17;4.57;;;2.42;;
15126;SDS011;7664;52.008;4.748;2024-03-17T16:50:20;4.20;;;2.60;;
15126;SDS011;7664;52.008;4.748;2024-03-17T16:52:51;5.47;;;2.88;;
15126;SDS011;7664;52.008;4.748;2024-03-17T16:55:21;4.47;;;2.95;;
15126;SDS011;7664;52.008;4.748;2024-03-17T16:58:21;4.75;;;2.92;;
15126;SDS011;7664;52.008;4.748;2024-03-17T17:04:05;4.75;;;2.60;;
15126;SDS011;7664;52.008;4.748;2024-03-17T17:06:34;3.03;;;2.67;;
15126;SDS011;7664;52.008;4.748;2024-03-17T17:09:14;5.18;;;2.80;;
15126;SDS011;7664;52.008;4.748;2024-03-17T17:11:58;6.75;;;2.83;;
15126;SDS011;7664;52.008;4.748;2024-03-17T17:14:51;5.32;;;2.67;;
15126;SDS011;7664;52.008;4.748;2024-03-17T17:21:17;8.57;;;3.53;;
15126;SDS011;7664;52.008;4.748;2024-03-17T17:27:43;5.78;;;2.80;;
15126;SDS011;7664;52.008;4.748;2024-03-17T17:30:13;3.38;;;2.80;;
15126;SDS011;7664;52.008;4.748;2024-03-17T17:32:48;3.10;;;2.80;;
15126;SDS011;7664;52.008;4.748;2024-03-17T17:35:19;5.38;;;3.45;;
15126;SDS011;7664;52.008;4.748;2024-03-17T17:37:53;6.75;;;3.67;;